createdAt,value
2022-08-10T00:00:03.236Z,988.35
2022-08-10T00:01:03.368Z,988.43
2022-08-10T00:02:03.279Z,988.32
2022-08-10T00:03:03.219Z,988.46
2022-08-10T00:04:03.217Z,988.32
2022-08-10T00:05:03.342Z,988.35
2022-08-10T00:06:03.356Z,988.29
2022-08-10T00:07:03.465Z,988.46
2022-08-10T00:08:03.473Z,988.46
2022-08-10T00:09:03.573Z,988.43
2022-08-10T00:10:03.767Z,988.44
2022-08-10T00:11:03.942Z,988.41
2022-08-10T00:12:03.053Z,988.41
2022-08-10T00:13:03.091Z,988.38
2022-08-10T00:14:02.961Z,988.35
2022-08-10T00:15:03.103Z,988.44
2022-08-10T00:16:03.108Z,988.47
2022-08-10T00:17:03.254Z,988.26
2022-08-10T00:18:03.283Z,988.35
2022-08-10T00:19:08.431Z,988.35
2022-08-10T00:20:08.968Z,988.27
2022-08-10T00:21:03.505Z,988.25
2022-08-10T00:22:03.586Z,988.22
2022-08-10T00:23:03.609Z,988.35
2022-08-10T00:24:03.749Z,988.27
2022-08-10T00:25:03.834Z,988.25
2022-08-10T00:26:03.729Z,988.13
2022-08-10T00:28:03.884Z,988.19
2022-08-10T00:28:04.616Z,988.41
2022-08-10T00:29:09.523Z,988.27
2022-08-10T00:30:03.244Z,988.17
2022-08-10T00:31:03.302Z,988.22
2022-08-10T00:32:03.262Z,988.25
2022-08-10T00:33:03.427Z,988.22
2022-08-10T00:34:03.302Z,988.22
2022-08-10T00:35:03.426Z,988.20
2022-08-10T00:36:03.555Z,988.17
2022-08-10T00:37:03.582Z,988.14
2022-08-10T00:38:03.902Z,988.11
2022-08-10T00:39:04.372Z,988.11
2022-08-10T00:40:04.023Z,988.08
2022-08-10T00:41:03.117Z,988.23
2022-08-10T00:42:08.372Z,988.11
2022-08-10T00:43:03.244Z,988.06
2022-08-10T00:44:03.315Z,988.26
2022-08-10T00:45:03.414Z,988.11
2022-08-10T00:46:04.722Z,988.09
2022-08-10T00:47:03.588Z,988.14
2022-08-10T00:48:03.718Z,988.14
2022-08-10T00:49:03.687Z,988.17
2022-08-10T00:50:03.848Z,988.20
2022-08-10T00:51:04.096Z,988.06
2022-08-10T00:52:02.955Z,988.03
2022-08-10T00:53:03.194Z,988.06
2022-08-10T00:54:03.169Z,988.20
2022-08-10T00:55:03.098Z,988.09
2022-08-10T00:57:18.275Z,987.95
2022-08-10T00:57:18.659Z,987.98
2022-08-10T00:58:03.251Z,988.03
2022-08-10T00:59:03.295Z,987.98
2022-08-10T01:00:03.268Z,988.06
2022-08-10T01:01:03.485Z,987.98
2022-08-10T01:02:11.871Z,988.01
2022-08-10T01:03:03.608Z,988.09
2022-08-10T01:05:01.168Z,987.98
2022-08-10T01:05:03.942Z,988.06
2022-08-10T01:06:03.864Z,988.04
2022-08-10T01:07:03.642Z,988.07
2022-08-10T01:08:03.653Z,987.92
2022-08-10T01:09:03.758Z,987.92
2022-08-10T01:10:05.215Z,987.87
2022-08-10T01:11:03.052Z,987.98
2022-08-10T01:12:47.744Z,987.87
2022-08-10T01:13:03.863Z,987.95
2022-08-10T01:14:02.922Z,987.88
2022-08-10T01:15:03.340Z,987.85
2022-08-10T01:16:03.427Z,988.04
2022-08-10T01:17:03.456Z,988.10
2022-08-10T01:18:03.634Z,987.95
2022-08-10T01:19:04.086Z,987.98
2022-08-10T01:20:03.803Z,987.88
2022-08-10T01:21:03.894Z,987.98
2022-08-10T01:22:03.034Z,987.93
2022-08-10T01:23:03.421Z,987.96
2022-08-10T01:24:03.180Z,987.85
2022-08-10T01:25:03.323Z,987.93
2022-08-10T01:26:30.859Z,987.99
2022-08-10T01:27:03.790Z,988.16
2022-08-10T01:28:03.500Z,988.04
2022-08-10T01:29:03.551Z,987.99
2022-08-10T01:30:03.681Z,988.02
2022-08-10T01:31:03.896Z,987.93
2022-08-10T01:32:03.845Z,987.88
2022-08-10T01:33:03.766Z,987.96
2022-08-10T01:34:03.189Z,987.96
2022-08-10T01:35:03.097Z,987.96
2022-08-10T01:36:03.189Z,987.93
2022-08-10T01:37:03.235Z,987.88
2022-08-10T01:38:03.466Z,988.02
2022-08-10T01:39:04.335Z,987.96
2022-08-10T01:40:03.583Z,988.02
2022-08-10T01:41:03.490Z,988.08
2022-08-10T01:42:03.498Z,987.94
2022-08-10T01:43:08.930Z,987.94
2022-08-10T01:44:04.199Z,987.91
2022-08-10T01:45:04.112Z,987.83
2022-08-10T01:46:03.147Z,987.77
2022-08-10T01:47:03.305Z,987.83
2022-08-10T01:48:03.206Z,987.80
2022-08-10T01:49:03.394Z,987.80
2022-08-10T01:50:03.505Z,987.78
2022-08-10T01:51:03.390Z,987.83
2022-08-10T01:52:03.569Z,987.75
2022-08-10T01:53:03.895Z,987.91
2022-08-10T01:54:03.490Z,987.78
2022-08-10T01:55:03.409Z,987.75
2022-08-10T01:56:03.482Z,987.69
2022-08-10T01:57:03.592Z,987.75
2022-08-10T01:58:04.287Z,987.84
2022-08-10T01:59:03.524Z,987.63
2022-08-10T02:00:03.922Z,987.64
2022-08-10T02:01:03.689Z,987.78
2022-08-10T02:02:03.661Z,987.75
2022-08-10T02:03:03.752Z,987.84
2022-08-10T02:04:06.340Z,987.92
2022-08-10T02:05:03.896Z,987.84
2022-08-10T02:06:03.964Z,987.92
2022-08-10T02:07:03.109Z,987.81
2022-08-10T02:08:03.056Z,987.78
2022-08-10T02:09:07.238Z,987.81
2022-08-10T02:10:03.412Z,987.81
2022-08-10T02:11:03.401Z,987.92
2022-08-10T02:12:08.894Z,987.98
2022-08-10T02:13:03.465Z,987.95
2022-08-10T02:14:03.801Z,987.75
2022-08-10T02:15:03.858Z,988.00
2022-08-10T02:16:03.710Z,987.92
2022-08-10T02:17:03.747Z,987.98
2022-08-10T02:18:03.958Z,987.84
2022-08-10T02:19:09.006Z,987.92
2022-08-10T02:20:03.178Z,988.01
2022-08-10T02:21:03.001Z,988.01
2022-08-10T02:22:39.491Z,988.01
2022-08-10T02:23:03.173Z,987.81
2022-08-10T02:24:03.149Z,987.87
2022-08-10T02:25:03.294Z,988.01
2022-08-10T02:26:03.291Z,987.87
2022-08-10T02:27:03.714Z,987.95
2022-08-10T02:28:03.273Z,987.95
2022-08-10T02:29:03.367Z,987.92
2022-08-10T02:30:03.362Z,987.92
2022-08-10T02:31:06.886Z,987.88
2022-08-10T02:32:04.197Z,987.98
2022-08-10T02:33:04.420Z,987.95
2022-08-10T02:34:06.206Z,987.82
2022-08-10T02:35:03.561Z,987.95
2022-08-10T02:36:03.676Z,987.82
2022-08-10T02:37:13.418Z,987.95
2022-08-10T02:38:03.636Z,987.95
2022-08-10T02:39:03.780Z,987.88
2022-08-10T02:40:03.907Z,988.01
2022-08-10T02:45:28.763Z,987.98
2022-08-10T02:45:29.004Z,987.88
2022-08-10T02:45:30.559Z,987.82
2022-08-10T02:45:30.624Z,987.79
2022-08-10T02:45:30.666Z,987.96
2022-08-10T02:46:03.203Z,987.65
2022-08-10T02:47:03.321Z,987.85
2022-08-10T02:48:03.297Z,987.85
2022-08-10T02:49:03.360Z,987.71
2022-08-10T02:50:03.291Z,987.68
2022-08-10T02:51:03.307Z,987.77
2022-08-10T02:52:09.008Z,987.83
2022-08-10T02:53:03.376Z,987.71
2022-08-10T02:54:03.353Z,987.85
2022-08-10T02:55:18.708Z,987.74
2022-08-10T02:56:03.399Z,987.74
2022-08-10T02:57:03.478Z,987.80
2022-08-10T02:58:18.540Z,987.86
2022-08-10T02:59:03.348Z,987.83
2022-08-10T03:00:03.383Z,987.74
2022-08-10T03:01:03.523Z,987.74
2022-08-10T03:02:03.648Z,987.77
2022-08-10T03:03:03.792Z,987.80
2022-08-10T03:04:03.930Z,987.77
2022-08-10T03:05:03.865Z,987.69
2022-08-10T03:06:02.948Z,987.72
2022-08-10T03:07:03.087Z,987.74
2022-08-10T03:08:03.062Z,987.74
2022-08-10T03:09:03.073Z,987.74
2022-08-10T03:10:05.552Z,987.69
2022-08-10T03:11:03.215Z,987.80
2022-08-10T03:12:38.752Z,987.63
2022-08-10T03:13:03.326Z,987.66
2022-08-10T03:14:03.216Z,987.72
2022-08-10T03:15:03.340Z,987.72
2022-08-10T03:16:03.304Z,987.69
2022-08-10T03:17:03.526Z,987.63
2022-08-10T03:18:03.823Z,987.77
2022-08-10T03:19:03.215Z,987.75
2022-08-10T03:20:39.218Z,987.80
2022-08-10T03:21:03.125Z,987.78
2022-08-10T03:22:03.331Z,987.97
2022-08-10T03:23:03.420Z,987.83
2022-08-10T03:24:32.932Z,987.81
2022-08-10T03:25:03.325Z,987.78
2022-08-10T03:26:03.413Z,987.94
2022-08-10T03:27:03.401Z,987.86
2022-08-10T03:28:03.514Z,987.94
2022-08-10T03:29:03.633Z,988.03
2022-08-10T03:30:34.080Z,987.78
2022-08-10T03:31:09.146Z,987.91
2022-08-10T03:32:03.118Z,987.78
2022-08-10T03:33:03.135Z,987.97
2022-08-10T03:34:34.850Z,987.78
2022-08-10T03:35:03.296Z,987.84
2022-08-10T03:36:46.631Z,987.81
2022-08-10T03:37:03.560Z,987.95
2022-08-10T03:38:08.930Z,987.78
2022-08-10T03:39:03.756Z,987.78
2022-08-10T03:40:03.793Z,987.87
2022-08-10T03:41:04.272Z,987.76
2022-08-10T03:42:07.964Z,987.81
2022-08-10T03:43:08.455Z,987.92
2022-08-10T03:44:03.157Z,987.87
2022-08-10T03:45:03.574Z,987.76
2022-08-10T03:46:03.802Z,987.73
2022-08-10T03:47:20.393Z,987.92
2022-08-10T03:48:03.752Z,987.92
2022-08-10T03:49:08.286Z,987.82
2022-08-10T03:50:52.565Z,987.82
2022-08-10T03:51:03.543Z,987.73
2022-08-10T03:52:03.833Z,987.87
2022-08-10T03:53:03.811Z,987.82
2022-08-10T03:54:07.675Z,987.84
2022-08-10T03:55:03.942Z,987.82
2022-08-10T03:56:32.530Z,987.87
2022-08-10T03:57:02.975Z,987.79
2022-08-10T03:58:02.977Z,987.85
2022-08-10T03:59:02.980Z,987.79
2022-08-10T04:00:02.990Z,987.85
2022-08-10T04:01:03.129Z,987.82
2022-08-10T04:02:48.406Z,987.95
2022-08-10T04:03:03.321Z,988.04
2022-08-10T04:04:14.594Z,988.01
2022-08-10T04:05:03.244Z,987.85
2022-08-10T04:06:03.548Z,987.88
2022-08-10T04:07:03.756Z,987.88
2022-08-10T04:08:08.331Z,987.98
2022-08-10T04:09:03.862Z,988.01
2022-08-10T04:10:03.826Z,987.93
2022-08-10T04:11:03.911Z,987.93
2022-08-10T04:12:02.971Z,987.85
2022-08-10T04:13:02.985Z,987.88
2022-08-10T04:14:03.603Z,987.88
2022-08-10T04:15:03.635Z,987.88
2022-08-10T04:16:08.038Z,987.96
2022-08-10T04:17:03.838Z,987.96
2022-08-10T04:18:06.817Z,988.01
2022-08-10T04:19:03.852Z,987.98
2022-08-10T04:20:03.827Z,987.96
2022-08-10T04:21:02.985Z,987.93
2022-08-10T04:22:02.997Z,987.96
2022-08-10T04:23:03.077Z,987.85
2022-08-10T04:24:03.166Z,987.95
2022-08-10T04:25:03.781Z,987.95
2022-08-10T04:26:03.576Z,987.88
2022-08-10T04:27:03.530Z,987.95
2022-08-10T04:28:03.776Z,987.95
2022-08-10T04:29:03.756Z,987.88
2022-08-10T04:30:03.822Z,987.98
2022-08-10T04:31:03.871Z,987.98
2022-08-10T04:32:02.983Z,988.04
2022-08-10T04:33:03.301Z,988.04
2022-08-10T04:34:09.083Z,988.07
2022-08-10T04:35:03.506Z,987.93
2022-08-10T04:36:03.404Z,987.98
2022-08-10T04:37:09.309Z,987.88
2022-08-10T04:38:03.450Z,988.10
2022-08-10T04:39:03.583Z,987.98
2022-08-10T04:40:03.420Z,988.07
2022-08-10T04:41:03.411Z,987.92
2022-08-10T04:42:03.400Z,988.04
2022-08-10T04:43:13.044Z,988.01
2022-08-10T04:44:03.455Z,987.98
2022-08-10T04:45:03.634Z,987.95
2022-08-10T04:46:13.979Z,988.07
2022-08-10T04:47:03.836Z,988.04
2022-08-10T04:48:04.002Z,987.98
2022-08-10T04:49:05.130Z,988.06
2022-08-10T04:50:05.319Z,988.00
2022-08-10T04:51:04.526Z,988.14
2022-08-10T04:52:03.942Z,987.97
2022-08-10T04:53:04.106Z,987.86
2022-08-10T04:54:08.739Z,987.99
2022-08-10T04:55:03.049Z,987.85
2022-08-10T04:56:03.137Z,987.96
2022-08-10T04:57:03.057Z,987.95
2022-08-10T04:58:03.246Z,988.09
2022-08-10T04:59:03.291Z,988.04
2022-08-10T05:00:18.806Z,987.87
2022-08-10T05:01:03.625Z,988.03
2022-08-10T05:02:32.268Z,987.95
2022-08-10T05:03:03.466Z,988.18
2022-08-10T05:04:39.623Z,988.15
2022-08-10T05:05:03.595Z,988.12
2022-08-10T05:06:03.686Z,988.12
2022-08-10T05:07:03.681Z,988.09
2022-08-10T05:08:03.774Z,988.23
2022-08-10T05:09:03.756Z,988.26
2022-08-10T05:10:13.075Z,988.26
2022-08-10T05:11:03.901Z,988.15
2022-08-10T05:12:03.947Z,988.20
2022-08-10T05:13:02.943Z,988.20
2022-08-10T05:14:03.045Z,988.23
2022-08-10T05:15:03.054Z,988.14
2022-08-10T05:16:03.672Z,988.17
2022-08-10T05:17:03.868Z,988.16
2022-08-10T05:18:11.586Z,988.16
2022-08-10T05:19:03.852Z,988.19
2022-08-10T05:20:07.566Z,988.10
2022-08-10T05:21:03.887Z,988.18
2022-08-10T05:22:05.202Z,988.26
2022-08-10T05:23:03.034Z,988.24
2022-08-10T05:24:03.648Z,988.09
2022-08-10T05:25:03.561Z,988.09
2022-08-10T05:26:03.600Z,988.17
2022-08-10T05:27:10.707Z,988.11
2022-08-10T05:28:07.135Z,988.19
2022-08-10T05:29:03.691Z,988.24
2022-08-10T05:30:04.370Z,988.21
2022-08-10T05:31:03.747Z,988.20
2022-08-10T05:32:03.915Z,988.27
2022-08-10T05:33:09.324Z,988.33
2022-08-10T05:34:03.015Z,988.32
2022-08-10T05:35:03.148Z,988.29
2022-08-10T05:36:03.267Z,988.26
2022-08-10T05:37:03.205Z,988.28
2022-08-10T05:38:14.419Z,988.42
2022-08-10T05:39:03.332Z,988.44
2022-08-10T05:40:03.430Z,988.53
2022-08-10T05:41:03.349Z,988.52
2022-08-10T05:42:03.297Z,988.46
2022-08-10T05:43:03.365Z,988.60
2022-08-10T05:44:03.362Z,988.63
2022-08-10T05:45:03.346Z,988.89
2022-08-10T05:46:21.223Z,988.89
2022-08-10T05:47:03.526Z,988.91
2022-08-10T05:49:00.807Z,988.77
2022-08-10T05:49:03.986Z,988.97
2022-08-10T05:50:05.474Z,988.91
2022-08-10T05:51:03.844Z,988.97
2022-08-10T05:52:03.813Z,989.06
2022-08-10T05:54:05.456Z,989.06
2022-08-10T05:54:07.122Z,989.03
2022-08-10T05:55:03.478Z,989.15
2022-08-10T05:56:03.086Z,989.14
2022-08-10T05:57:03.081Z,989.23
2022-08-10T05:58:05.673Z,989.23
2022-08-10T05:59:03.136Z,989.29
2022-08-10T06:00:38.950Z,989.23
2022-08-10T06:01:03.595Z,989.28
2022-08-10T06:02:35.249Z,989.40
2022-08-10T06:03:03.369Z,989.31
2022-08-10T06:04:03.508Z,989.36
2022-08-10T06:05:03.317Z,989.39
2022-08-10T06:06:03.416Z,989.36
2022-08-10T06:07:03.416Z,989.44
2022-08-10T06:08:03.532Z,989.47
2022-08-10T06:09:03.557Z,989.59
2022-08-10T06:10:10.642Z,989.53
2022-08-10T06:12:29.747Z,989.62
2022-08-10T06:12:30.034Z,989.56
2022-08-10T06:13:04.281Z,989.65
2022-08-10T06:14:18.379Z,989.68
2022-08-10T06:15:09.947Z,989.56
2022-08-10T06:16:02.964Z,989.65
2022-08-10T06:17:03.136Z,989.70
2022-08-10T06:18:03.120Z,989.68
2022-08-10T06:19:03.155Z,989.80
2022-08-10T06:20:03.261Z,989.68
2022-08-10T06:21:03.327Z,989.77
2022-08-10T06:22:03.298Z,989.74
2022-08-10T06:23:03.418Z,989.69
2022-08-10T06:24:03.309Z,989.77
2022-08-10T06:26:13.963Z,989.74
2022-08-10T06:26:15.646Z,989.77
2022-08-10T06:27:03.391Z,989.80
2022-08-10T06:28:03.333Z,989.94
2022-08-10T06:29:04.635Z,989.83
2022-08-10T06:30:21.148Z,989.91
2022-08-10T06:31:03.886Z,989.88
2022-08-10T06:32:03.030Z,989.85
2022-08-10T06:33:03.358Z,989.79
2022-08-10T06:34:03.334Z,989.88
2022-08-10T06:35:03.287Z,989.65
2022-08-10T06:36:03.376Z,989.79
2022-08-10T06:37:03.387Z,989.78
2022-08-10T06:38:03.383Z,989.81
2022-08-10T06:39:34.749Z,989.78
2022-08-10T06:40:03.617Z,989.89
2022-08-10T06:41:03.424Z,989.95
2022-08-10T06:42:18.432Z,989.86
2022-08-10T06:43:03.753Z,989.95
2022-08-10T06:44:03.825Z,989.89
2022-08-10T06:45:03.926Z,989.95
2022-08-10T06:46:08.855Z,989.86
2022-08-10T06:47:02.945Z,989.83
2022-08-10T06:48:02.962Z,990.00
2022-08-10T06:49:03.186Z,989.92
2022-08-10T06:50:09.213Z,989.97
2022-08-10T06:51:03.225Z,989.85
2022-08-10T06:52:03.182Z,989.70
2022-08-10T06:53:03.207Z,989.96
2022-08-10T06:54:03.137Z,989.90
2022-08-10T06:55:08.919Z,989.93
2022-08-10T06:56:03.210Z,989.90
2022-08-10T06:57:18.722Z,990.02
2022-08-10T06:58:06.328Z,990.05
2022-08-10T06:59:03.258Z,990.08
2022-08-10T07:00:05.097Z,990.05
2022-08-10T07:01:03.566Z,990.11
2022-08-10T07:02:03.393Z,990.14
2022-08-10T07:03:08.390Z,990.17
2022-08-10T07:04:03.450Z,990.20
2022-08-10T07:05:03.430Z,990.18
2022-08-10T07:06:03.447Z,990.15
2022-08-10T07:07:03.417Z,990.15
2022-08-10T07:08:03.472Z,990.15
2022-08-10T07:09:03.591Z,990.07
2022-08-10T07:10:03.527Z,990.04
2022-08-10T07:11:03.635Z,990.09
2022-08-10T07:12:09.501Z,989.98
2022-08-10T07:13:03.723Z,989.98
2022-08-10T07:14:18.519Z,989.89
2022-08-10T07:15:03.845Z,989.94
2022-08-10T07:16:03.809Z,989.94
2022-08-10T07:17:03.946Z,989.91
2022-08-10T07:18:03.900Z,990.02
2022-08-10T07:19:03.010Z,989.93
2022-08-10T07:20:04.787Z,989.99
2022-08-10T07:21:03.910Z,989.93
2022-08-10T07:22:03.861Z,989.84
2022-08-10T07:24:00.365Z,989.95
2022-08-10T07:24:03.976Z,989.95
2022-08-10T07:25:07.412Z,989.83
2022-08-10T07:26:03.435Z,989.83
2022-08-10T07:27:03.458Z,989.83
2022-08-10T07:28:03.006Z,989.77
2022-08-10T07:29:03.004Z,989.82
2022-08-10T07:30:03.131Z,989.91
2022-08-10T07:31:04.081Z,989.94
2022-08-10T07:32:03.791Z,989.88
2022-08-10T07:33:03.765Z,989.99
2022-08-10T07:34:03.687Z,989.90
2022-08-10T07:35:03.804Z,989.93
2022-08-10T07:36:03.770Z,990.02
2022-08-10T07:37:03.827Z,989.90
2022-08-10T07:38:05.250Z,990.10
2022-08-10T07:39:02.999Z,990.13
2022-08-10T07:40:05.425Z,990.04
2022-08-10T07:41:03.117Z,990.10
2022-08-10T07:42:03.227Z,990.01
2022-08-10T07:43:03.269Z,990.19
2022-08-10T07:44:03.292Z,990.13
2022-08-10T07:45:03.375Z,990.07
2022-08-10T07:46:05.696Z,990.19
2022-08-10T07:47:03.483Z,990.13
2022-08-10T07:48:08.345Z,990.21
2022-08-10T07:49:19.762Z,990.21
2022-08-10T07:50:03.400Z,990.22
2022-08-10T07:51:03.501Z,990.22
2022-08-10T07:52:03.565Z,990.19
2022-08-10T07:53:04.770Z,990.21
2022-08-10T07:54:03.620Z,990.21
2022-08-10T07:55:03.522Z,990.07
2022-08-10T07:56:32.155Z,990.21
2022-08-10T07:57:03.335Z,990.18
2022-08-10T07:58:03.389Z,990.27
2022-08-10T07:59:03.499Z,990.27
2022-08-10T08:00:04.809Z,990.30
2022-08-10T08:01:03.759Z,990.35
2022-08-10T08:02:03.672Z,990.24
2022-08-10T08:03:03.007Z,990.26
2022-08-10T08:04:11.915Z,990.35
2022-08-10T08:05:03.106Z,990.23
2022-08-10T08:06:12.347Z,990.29
2022-08-10T08:07:03.175Z,990.38
2022-08-10T08:08:03.187Z,990.23
2022-08-10T08:09:03.083Z,990.23
2022-08-10T08:10:03.030Z,990.29
2022-08-10T08:11:03.659Z,990.41
2022-08-10T08:12:03.597Z,990.23
2022-08-10T08:13:04.938Z,990.26
2022-08-10T08:14:03.733Z,990.23
2022-08-10T08:16:21.885Z,990.20
2022-08-10T08:16:21.913Z,990.25
2022-08-10T08:17:04.225Z,990.22
2022-08-10T08:18:03.760Z,990.37
2022-08-10T08:19:35.674Z,990.34
2022-08-10T08:20:04.355Z,990.22
2022-08-10T08:24:03.882Z,990.22
2022-08-10T08:24:16.677Z,990.19
2022-08-10T08:24:30.683Z,990.25
2022-08-10T08:24:34.079Z,990.18
2022-08-10T08:25:03.340Z,990.18
2022-08-10T08:26:03.385Z,990.30
2022-08-10T08:27:03.433Z,990.21
2022-08-10T08:28:03.367Z,990.33
2022-08-10T08:29:05.296Z,990.27
2022-08-10T08:30:03.466Z,990.21
2022-08-10T08:31:03.537Z,990.36
2022-08-10T08:32:04.444Z,990.33
2022-08-10T08:33:03.621Z,990.39
2022-08-10T08:34:03.564Z,990.39
2022-08-10T08:35:03.830Z,990.42
2022-08-10T08:36:03.775Z,990.36
2022-08-10T08:37:03.897Z,990.39
2022-08-10T08:38:34.832Z,990.27
2022-08-10T08:39:03.003Z,990.39
2022-08-10T08:40:02.960Z,990.47
2022-08-10T08:41:02.967Z,990.47
2022-08-10T08:42:03.132Z,990.52
2022-08-10T08:43:03.010Z,990.39
2022-08-10T08:44:03.139Z,990.44
2022-08-10T08:45:03.115Z,990.39
2022-08-10T08:46:03.027Z,990.49
2022-08-10T08:48:02.199Z,990.49
2022-08-10T08:48:06.499Z,990.52
2022-08-10T08:49:03.222Z,990.49
2022-08-10T08:50:10.089Z,990.44
2022-08-10T08:51:03.279Z,990.58
2022-08-10T08:52:18.527Z,990.55
2022-08-10T08:53:03.386Z,990.52
2022-08-10T08:54:04.360Z,990.55
2022-08-10T08:55:03.422Z,990.64
2022-08-10T08:56:07.382Z,990.58
2022-08-10T08:57:03.465Z,990.64
2022-08-10T08:58:03.335Z,990.61
2022-08-10T08:59:03.400Z,990.70
2022-08-10T09:00:03.367Z,990.55
2022-08-10T09:01:03.426Z,990.55
2022-08-10T09:02:03.535Z,990.52
2022-08-10T09:03:03.428Z,990.52
2022-08-10T09:04:03.595Z,990.61
2022-08-10T09:05:03.574Z,990.49
2022-08-10T09:06:03.784Z,990.58
2022-08-10T09:07:03.848Z,990.49
2022-08-10T09:08:03.967Z,990.52
2022-08-10T09:09:03.822Z,990.49
2022-08-10T09:10:03.803Z,990.55
2022-08-10T09:11:03.844Z,990.55
2022-08-10T09:12:02.915Z,990.55
2022-08-10T09:13:02.953Z,990.58
2022-08-10T09:14:04.577Z,990.44
2022-08-10T09:15:03.033Z,990.55
2022-08-10T09:16:03.257Z,990.49
2022-08-10T09:17:03.268Z,990.58
2022-08-10T09:18:03.168Z,990.55
2022-08-10T09:19:03.296Z,990.49
2022-08-10T09:20:03.245Z,990.44
2022-08-10T09:21:03.333Z,990.35
2022-08-10T09:22:19.255Z,990.44
2022-08-10T09:23:03.371Z,990.38
2022-08-10T09:24:06.516Z,990.32
2022-08-10T09:25:03.352Z,990.38
2022-08-10T09:26:03.386Z,990.49
2022-08-10T09:27:03.569Z,990.35
2022-08-10T09:28:03.627Z,990.38
2022-08-10T09:29:13.440Z,990.41
2022-08-10T09:30:04.845Z,990.38
2022-08-10T09:31:22.983Z,990.38
2022-08-10T09:36:32.096Z,990.35
2022-08-10T09:36:32.726Z,990.41
2022-08-10T09:36:32.730Z,990.44
2022-08-10T09:36:32.814Z,990.38
2022-08-10T09:36:32.818Z,990.26
2022-08-10T09:37:02.992Z,990.35
2022-08-10T09:38:03.713Z,990.29
2022-08-10T09:39:03.121Z,990.32
2022-08-10T09:41:02.429Z,990.35
2022-08-10T09:41:12.965Z,990.23
2022-08-10T09:42:05.975Z,990.17
2022-08-10T09:43:26.526Z,990.32
2022-08-10T09:44:03.536Z,990.23
2022-08-10T09:45:03.551Z,990.26
2022-08-10T09:46:03.519Z,990.20
2022-08-10T09:47:03.680Z,990.23
2022-08-10T09:48:03.720Z,990.29
2022-08-10T09:49:03.673Z,990.23
2022-08-10T09:50:05.423Z,990.38
2022-08-10T09:51:45.173Z,990.38
2022-08-10T09:52:03.766Z,990.32
2022-08-10T09:53:03.808Z,990.32
2022-08-10T09:54:03.011Z,990.29
2022-08-10T09:55:03.118Z,990.26
2022-08-10T09:56:22.301Z,990.32
2022-08-10T09:57:41.374Z,990.43
2022-08-10T09:58:03.778Z,990.29
2022-08-10T10:00:02.126Z,990.32
2022-08-10T10:00:03.659Z,990.38
2022-08-10T10:01:03.156Z,990.29
2022-08-10T10:02:04.947Z,990.29
2022-08-10T10:03:03.450Z,990.23
2022-08-10T10:04:03.171Z,990.23
2022-08-10T10:05:03.220Z,990.20
2022-08-10T10:06:03.281Z,990.17
2022-08-10T10:07:03.318Z,990.22
2022-08-10T10:08:03.427Z,990.13
2022-08-10T10:09:11.081Z,990.37
2022-08-10T10:10:06.121Z,990.28
2022-08-10T10:11:03.660Z,990.13
2022-08-10T10:12:10.368Z,990.31
2022-08-10T10:13:03.897Z,990.10
2022-08-10T10:14:10.572Z,990.22
2022-08-10T10:15:03.886Z,990.08
2022-08-10T10:16:03.912Z,990.10
2022-08-10T10:17:03.893Z,990.04
2022-08-10T10:18:03.203Z,990.19
2022-08-10T10:19:03.042Z,990.19
2022-08-10T10:20:03.052Z,990.19
2022-08-10T10:21:03.110Z,990.16
2022-08-10T10:22:03.194Z,990.08
2022-08-10T10:23:03.501Z,990.11
2022-08-10T10:24:23.107Z,990.10
2022-08-10T10:25:21.497Z,990.02
2022-08-10T10:26:16.012Z,990.05
2022-08-10T10:27:04.556Z,990.08
2022-08-10T10:28:03.624Z,990.05
2022-08-10T10:29:56.137Z,989.96
2022-08-10T10:30:02.027Z,989.96
2022-08-10T10:31:02.964Z,990.02
2022-08-10T10:32:03.051Z,990.08
2022-08-10T10:33:04.627Z,990.02
2022-08-10T10:34:03.227Z,989.84
2022-08-10T10:35:03.147Z,989.93
2022-08-10T10:36:03.128Z,989.81
2022-08-10T10:37:03.621Z,989.93
2022-08-10T10:38:04.123Z,989.93
2022-08-10T10:39:03.544Z,989.93
2022-08-10T10:40:03.795Z,989.81
2022-08-10T10:41:03.656Z,989.78
2022-08-10T10:42:05.357Z,989.75
2022-08-10T10:43:03.723Z,989.84
2022-08-10T10:44:03.733Z,989.81
2022-08-10T10:45:03.774Z,989.72
2022-08-10T10:46:03.827Z,989.78
2022-08-10T10:47:03.823Z,989.71
2022-08-10T10:48:03.928Z,989.71
2022-08-10T10:49:03.884Z,989.71
2022-08-10T10:50:03.927Z,989.63
2022-08-10T10:51:11.004Z,989.58
2022-08-10T10:52:03.968Z,989.67
2022-08-10T10:53:02.946Z,989.67
2022-08-10T10:54:03.133Z,989.64
2022-08-10T10:55:03.086Z,989.61
2022-08-10T10:56:16.337Z,989.55
2022-08-10T10:57:03.019Z,989.64
2022-08-10T10:58:03.429Z,989.55
2022-08-10T10:59:57.203Z,989.69
2022-08-10T11:00:03.247Z,989.90
2022-08-10T11:01:03.396Z,989.69
2022-08-10T11:02:03.264Z,989.78
2022-08-10T11:03:03.225Z,989.75
2022-08-10T11:04:04.152Z,989.78
2022-08-10T11:05:03.231Z,989.67
2022-08-10T11:06:03.863Z,989.87
2022-08-10T11:07:03.861Z,989.81
2022-08-10T11:08:03.685Z,989.78
2022-08-10T11:09:08.195Z,989.93
2022-08-10T11:10:32.274Z,989.67
2022-08-10T11:11:03.604Z,989.69
2022-08-10T11:12:05.354Z,989.69
2022-08-10T11:14:28.797Z,989.64
2022-08-10T11:14:29.425Z,989.55
2022-08-10T11:15:03.314Z,989.64
2022-08-10T11:16:03.283Z,989.74
2022-08-10T11:17:03.503Z,989.74
2022-08-10T11:18:03.525Z,989.71
2022-08-10T11:19:03.702Z,989.75
2022-08-10T11:20:04.698Z,989.75
2022-08-10T11:21:03.729Z,989.78
2022-08-10T11:22:03.794Z,989.84
2022-08-10T11:23:03.813Z,989.69
2022-08-10T11:24:50.188Z,989.61
2022-08-10T11:25:03.318Z,989.78
2022-08-10T11:26:03.355Z,989.61
2022-08-10T11:27:03.490Z,989.78
2022-08-10T11:28:03.573Z,989.61
2022-08-10T11:29:03.648Z,989.75
2022-08-10T11:30:03.519Z,989.67
2022-08-10T11:31:03.560Z,989.64
2022-08-10T11:32:03.743Z,989.67
2022-08-10T11:33:03.785Z,989.72
2022-08-10T11:35:12.410Z,989.64
2022-08-10T11:35:12.957Z,989.67
2022-08-10T11:36:03.174Z,989.61
2022-08-10T11:37:03.179Z,989.69
2022-08-10T11:38:42.998Z,989.61
2022-08-10T11:39:14.976Z,989.64
2022-08-10T11:40:03.441Z,989.67
2022-08-10T11:42:12.706Z,989.58
2022-08-10T11:42:16.610Z,989.58
2022-08-10T11:43:03.432Z,989.66
2022-08-10T11:44:03.371Z,989.68
2022-08-10T11:45:03.437Z,989.66
2022-08-10T11:46:08.346Z,989.80
2022-08-10T11:47:03.499Z,989.74
2022-08-10T11:48:03.591Z,989.64
2022-08-10T11:49:04.462Z,989.83
2022-08-10T11:50:03.706Z,989.74
2022-08-10T11:51:03.856Z,989.77
2022-08-10T11:52:03.022Z,989.66
2022-08-10T11:53:03.063Z,989.68
2022-08-10T11:54:03.190Z,989.71
2022-08-10T11:55:03.172Z,989.71
2022-08-10T11:56:11.388Z,989.74
2022-08-10T11:57:03.472Z,989.66
2022-08-10T11:58:04.364Z,989.66
2022-08-10T11:59:17.461Z,989.74
2022-08-10T12:00:03.028Z,989.77
2022-08-10T12:01:03.111Z,989.74
2022-08-10T12:02:03.358Z,989.77
2022-08-10T12:03:03.439Z,989.89
2022-08-10T12:04:06.074Z,989.89
2022-08-10T12:05:03.157Z,989.74
2022-08-10T12:06:03.273Z,989.92
2022-08-10T12:10:03.225Z,989.92
2022-08-10T12:10:12.934Z,989.89
2022-08-10T12:10:13.680Z,989.64
2022-08-10T12:10:14.278Z,989.61
2022-08-10T12:11:03.284Z,989.72
2022-08-10T12:12:03.304Z,989.80
2022-08-10T12:13:03.467Z,989.83
2022-08-10T12:14:22.119Z,989.61
2022-08-10T12:15:03.535Z,989.75
2022-08-10T12:16:06.025Z,989.69
2022-08-10T12:17:03.787Z,989.81
2022-08-10T12:18:03.825Z,989.75
2022-08-10T12:19:03.827Z,989.75
2022-08-10T12:20:04.227Z,989.84
2022-08-10T12:21:03.027Z,989.67
2022-08-10T12:22:06.629Z,989.78
2022-08-10T12:23:03.136Z,989.75
2022-08-10T12:24:03.870Z,989.84
2022-08-10T12:25:03.213Z,989.78
2022-08-10T12:26:03.244Z,989.87
2022-08-10T12:27:03.287Z,989.87
2022-08-10T12:28:03.200Z,989.65